Navirai, Brazil
Current Conditions -  °F | °C
As of 1:00 PM on Friday 28 Nov 2014 (Local Time) from SBCA Reporting Station
Broken Clouds Broken Clouds  
Wind Chill: 82°   Ceiling: 3000
Heat Index: 84°   Visibility: 6mi
Dew Point: 64°   Wind: 21mph
Humidity: 54%   Direction: 40°NE
Pressure: 30.03"   Gusts: NA
Location:  23.07°S, 54.19°W
Report Text: SBCA 281600Z 04018KT 9999 BKN030 28/18 Q1017
Loading
Personal Weather Stations






























Interactive Weather Map New forecast layout! Learn more

10-Day Weather Forecast

Advertisements
Track Severe Weather on mobile